createdAt,value
2018-06-12T00:01:23.544Z,13.63
2018-06-12T00:04:34.464Z,13.80
2018-06-12T00:07:45.298Z,14.23
2018-06-12T00:10:55.823Z,15.40
2018-06-12T00:14:06.299Z,13.07
2018-06-12T00:17:18.088Z,15.00
2018-06-12T00:20:28.524Z,15.97
2018-06-12T00:23:39.468Z,15.47
2018-06-12T00:26:50.059Z,15.33
2018-06-12T00:30:00.580Z,15.23
2018-06-12T00:33:11.133Z,14.17
2018-06-12T00:36:22.013Z,13.93
2018-06-12T00:39:32.707Z,14.27
2018-06-12T00:42:43.784Z,12.63
2018-06-12T00:45:54.452Z,11.37
2018-06-12T00:49:05.276Z,12.10
2018-06-12T00:52:15.903Z,11.97
2018-06-12T00:55:26.603Z,12.80
2018-06-12T00:58:37.071Z,13.50
2018-06-12T01:01:47.932Z,11.13
2018-06-12T01:04:58.899Z,12.67
2018-06-12T01:08:10.017Z,13.37
2018-06-12T01:11:20.820Z,13.13
2018-06-12T01:14:32.900Z,12.10
2018-06-12T01:17:44.647Z,12.63
2018-06-12T01:20:55.432Z,12.77
2018-06-12T01:24:06.152Z,12.57
2018-06-12T01:27:16.968Z,13.13
2018-06-12T01:30:27.273Z,11.80
2018-06-12T01:33:38.089Z,12.60
2018-06-12T01:36:49.426Z,12.33
2018-06-12T01:40:00.264Z,12.07
2018-06-12T01:43:10.759Z,12.23
2018-06-12T01:46:21.985Z,12.13
2018-06-12T01:49:32.550Z,13.07
2018-06-12T01:52:43.374Z,12.80
2018-06-12T01:55:54.017Z,12.40
2018-06-12T01:59:04.611Z,13.13
2018-06-12T02:02:15.207Z,12.20
2018-06-12T02:05:25.636Z,13.40
2018-06-12T02:08:36.467Z,14.00
2018-06-12T02:11:47.047Z,13.30
2018-06-12T02:14:57.808Z,12.40
2018-06-12T02:18:08.860Z,12.87
2018-06-12T02:21:19.591Z,13.23
2018-06-12T02:24:30.444Z,11.80
2018-06-12T02:27:41.216Z,13.60
2018-06-12T02:30:51.914Z,13.47
2018-06-12T02:34:02.864Z,10.10
2018-06-12T02:37:13.474Z,12.17
2018-06-12T02:40:25.502Z,12.13
2018-06-12T02:43:37.244Z,12.13
2018-06-12T02:46:48.223Z,12.57
2018-06-12T02:49:58.639Z,12.50
2018-06-12T02:53:09.146Z,13.03
2018-06-12T02:56:19.475Z,13.07
2018-06-12T02:59:30.252Z,13.30
2018-06-12T03:02:41.332Z,12.70
2018-06-12T03:05:52.161Z,12.63
2018-06-12T03:09:02.766Z,13.33
2018-06-12T03:12:15.912Z,13.70
2018-06-12T03:15:32.544Z,13.13
2018-06-12T03:18:44.789Z,12.47
2018-06-12T03:21:55.530Z,13.40
2018-06-12T03:25:08.936Z,12.83
2018-06-12T03:28:21.168Z,12.67
2018-06-12T03:31:33.452Z,13.20
2018-06-12T03:34:51.430Z,12.97
2018-06-12T03:38:05.828Z,12.07
2018-06-12T03:45:09.089Z,13.60
2018-06-12T03:48:27.832Z,13.33
2018-06-12T03:55:03.855Z,13.70
2018-06-12T03:58:19.531Z,13.67
2018-06-12T04:01:52.320Z,14.00
2018-06-12T04:05:07.725Z,12.93
2018-06-12T04:08:22.279Z,12.67
2018-06-12T04:11:41.789Z,13.30
2018-06-12T04:14:52.478Z,12.70
2018-06-12T04:18:03.032Z,13.77
2018-06-12T04:21:14.332Z,12.80
2018-06-12T04:24:24.755Z,13.33
2018-06-12T04:27:35.795Z,12.43
2018-06-12T04:30:46.700Z,11.80
2018-06-12T04:33:57.091Z,11.97
2018-06-12T04:37:08.033Z,11.37
2018-06-12T04:40:18.733Z,12.00
2018-06-12T04:43:29.578Z,11.53
2018-06-12T04:46:40.470Z,10.60
2018-06-12T04:49:51.732Z,10.93
2018-06-12T04:53:02.629Z,10.80
2018-06-12T04:56:13.391Z,9.67
2018-06-12T04:59:24.252Z,11.40
2018-06-12T05:02:35.060Z,9.77
2018-06-12T05:05:45.779Z,9.73
2018-06-12T05:08:56.287Z,8.80
2018-06-12T05:12:07.199Z,9.20
2018-06-12T05:15:19.178Z,9.80
2018-06-12T05:18:34.126Z,9.00
2018-06-12T05:21:45.067Z,8.00
2018-06-12T05:24:55.583Z,8.03
2018-06-12T05:28:06.345Z,7.33
2018-06-12T05:31:16.913Z,7.60
2018-06-12T05:34:27.678Z,7.77
2018-06-12T05:37:38.138Z,8.27
2018-06-12T05:40:48.726Z,7.07
2018-06-12T05:44:00.365Z,7.67
2018-06-12T05:47:11.071Z,8.17
2018-06-12T05:50:21.884Z,7.17
2018-06-12T05:53:32.448Z,7.27
2018-06-12T05:56:43.293Z,7.70
2018-06-12T05:59:54.232Z,7.63
2018-06-12T06:03:04.964Z,7.87
2018-06-12T06:06:16.107Z,7.00
2018-06-12T06:09:27.069Z,7.40
2018-06-12T06:12:37.620Z,6.43
2018-06-12T06:15:48.584Z,6.77
2018-06-12T06:18:59.188Z,6.07
2018-06-12T06:22:10.463Z,6.67
2018-06-12T06:25:21.256Z,6.13
2018-06-12T06:28:31.624Z,6.47
2018-06-12T06:31:42.145Z,6.10
2018-06-12T06:34:53.167Z,6.70
2018-06-12T06:38:04.847Z,6.20
2018-06-12T06:41:15.324Z,4.87
2018-06-12T06:44:32.085Z,4.97
2018-06-12T06:47:42.491Z,5.37
2018-06-12T06:50:53.695Z,4.30
2018-06-12T06:54:05.080Z,4.33
2018-06-12T06:57:15.865Z,4.80
2018-06-12T07:00:26.208Z,3.90
2018-06-12T07:03:37.416Z,4.13
2018-06-12T07:06:48.240Z,3.53
2018-06-12T07:09:59.101Z,4.20
2018-06-12T07:13:10.275Z,4.10
2018-06-12T07:16:21.000Z,3.70
2018-06-12T07:19:31.562Z,3.47
2018-06-12T07:22:43.220Z,3.33
2018-06-12T07:25:55.012Z,2.60
2018-06-12T07:29:05.760Z,2.70
2018-06-12T07:32:16.626Z,2.73
2018-06-12T07:35:28.331Z,2.90
2018-06-12T07:38:39.124Z,2.77
2018-06-12T07:41:49.447Z,2.30
2018-06-12T07:44:59.792Z,2.73
2018-06-12T07:48:10.186Z,2.10
2018-06-12T07:51:20.801Z,2.40
2018-06-12T07:54:31.884Z,2.53
2018-06-12T07:57:42.632Z,1.90
2018-06-12T08:00:53.345Z,2.07
2018-06-12T08:04:04.207Z,2.40
2018-06-12T08:07:15.029Z,1.77
2018-06-12T08:10:25.691Z,1.93
2018-06-12T08:13:36.393Z,1.80
2018-06-12T08:16:47.049Z,1.60
2018-06-12T08:19:58.476Z,2.00
2018-06-12T08:23:09.247Z,2.73
2018-06-12T08:26:19.695Z,3.03
2018-06-12T08:29:30.040Z,2.97
2018-06-12T08:32:42.081Z,2.67
2018-06-12T08:35:52.735Z,2.57
2018-06-12T08:39:06.288Z,2.87
2018-06-12T08:42:16.972Z,3.97
2018-06-12T08:45:31.971Z,6.40
2018-06-12T08:48:42.892Z,6.70
2018-06-12T08:51:54.028Z,6.40
2018-06-12T08:55:04.776Z,6.80
2018-06-12T08:58:15.221Z,7.20
2018-06-12T09:01:26.163Z,7.60
2018-06-12T09:04:36.780Z,6.40
2018-06-12T09:07:47.706Z,5.37
2018-06-12T09:10:58.481Z,6.27
2018-06-12T09:14:09.047Z,5.90
2018-06-12T09:17:19.332Z,5.90
2018-06-12T09:20:30.300Z,6.53
2018-06-12T09:23:40.592Z,6.53
2018-06-12T09:26:50.969Z,7.15
2018-06-12T09:30:01.285Z,7.45
2018-06-12T09:33:12.348Z,7.17
2018-06-12T09:36:34.096Z,6.60
2018-06-12T09:39:44.943Z,5.87
2018-06-12T09:42:55.690Z,6.50
2018-06-12T09:46:07.377Z,7.42
2018-06-12T09:49:17.830Z,6.37
2018-06-12T09:52:28.562Z,6.45
2018-06-12T09:55:38.879Z,5.90
2018-06-12T09:58:49.598Z,5.92
2018-06-12T10:02:00.043Z,5.22
2018-06-12T10:05:10.633Z,5.60
2018-06-12T10:08:21.225Z,7.42
2018-06-12T10:11:31.890Z,5.92
2018-06-12T10:14:42.263Z,4.90
2018-06-12T10:17:52.609Z,4.93
2018-06-12T10:21:03.679Z,5.25
2018-06-12T10:24:14.589Z,4.35
2018-06-12T10:27:25.158Z,4.65
2018-06-12T10:30:35.820Z,4.17
2018-06-12T10:33:47.788Z,3.75
2018-06-12T10:36:58.287Z,3.27
2018-06-12T10:40:09.117Z,3.83
2018-06-12T10:43:19.601Z,3.20
2018-06-12T10:46:30.503Z,3.33
2018-06-12T10:49:41.128Z,3.62
2018-06-12T10:52:52.029Z,3.70
2018-06-12T10:56:03.196Z,3.62
2018-06-12T10:59:13.769Z,3.95
2018-06-12T11:02:24.316Z,4.12
2018-06-12T11:05:35.211Z,4.00
2018-06-12T11:08:45.616Z,4.17
2018-06-12T11:11:56.318Z,4.30
2018-06-12T11:15:07.800Z,3.90
2018-06-12T11:18:18.252Z,3.90
2018-06-12T11:21:28.563Z,3.72
2018-06-12T11:24:40.133Z,4.45
2018-06-12T11:27:51.309Z,4.45
2018-06-12T11:31:02.913Z,4.00
2018-06-12T11:34:13.645Z,4.65
2018-06-12T11:37:24.412Z,4.92
2018-06-12T11:40:35.046Z,4.60
2018-06-12T11:43:45.995Z,5.33
2018-06-12T11:46:57.091Z,5.08
2018-06-12T11:50:07.527Z,4.93
2018-06-12T11:53:18.048Z,4.72
2018-06-12T11:56:28.868Z,5.53
2018-06-12T11:59:39.599Z,5.10
2018-06-12T12:02:50.060Z,4.97
2018-06-12T12:06:01.764Z,5.37
2018-06-12T12:09:12.643Z,5.40
2018-06-12T12:12:23.671Z,6.30
2018-06-12T12:15:34.653Z,5.87
2018-06-12T12:18:45.636Z,6.07
2018-06-12T12:21:56.298Z,5.47
2018-06-12T12:25:07.163Z,5.40
2018-06-12T12:28:17.999Z,6.20
2018-06-12T12:31:28.721Z,7.00
2018-06-12T12:34:39.354Z,6.27
2018-06-12T12:37:54.476Z,6.10
2018-06-12T12:41:06.571Z,6.55
2018-06-12T12:44:17.212Z,6.23
2018-06-12T12:47:30.442Z,5.85
2018-06-12T12:50:43.020Z,5.00
2018-06-12T12:53:53.901Z,7.20
2018-06-12T12:57:04.489Z,6.72
2018-06-12T13:00:16.016Z,6.90
2018-06-12T13:03:27.572Z,6.77
2018-06-12T13:06:39.660Z,6.93
2018-06-12T13:09:50.964Z,7.07
2018-06-12T13:13:02.082Z,7.40
2018-06-12T13:16:12.871Z,6.42
2018-06-12T13:19:25.230Z,7.30
2018-06-12T13:22:36.407Z,7.03
2018-06-12T13:25:48.196Z,6.63
2018-06-12T13:28:59.094Z,7.58
2018-06-12T13:32:11.024Z,7.63
2018-06-12T13:35:21.830Z,7.47
2018-06-12T13:38:32.721Z,7.30
2018-06-12T13:41:44.396Z,7.37
2018-06-12T13:44:56.314Z,7.20
2018-06-12T13:48:08.009Z,6.73
2018-06-12T13:51:18.660Z,7.22
2018-06-12T13:54:29.668Z,7.00
2018-06-12T13:57:40.857Z,7.42
2018-06-12T14:00:51.233Z,6.28
2018-06-12T14:04:02.847Z,6.93
2018-06-12T14:07:14.365Z,6.70
2018-06-12T14:10:25.892Z,5.90
2018-06-12T14:13:37.051Z,5.67
2018-06-12T14:16:51.954Z,6.40
2018-06-12T14:20:04.090Z,5.37
2018-06-12T14:23:14.849Z,5.30
2018-06-12T14:26:25.808Z,5.83
2018-06-12T14:29:36.859Z,5.50
2018-06-12T14:32:47.791Z,6.03
2018-06-12T14:35:59.345Z,5.43
2018-06-12T14:39:10.745Z,6.10
2018-06-12T14:42:21.506Z,6.13
2018-06-12T14:45:32.459Z,5.60
2018-06-12T14:48:44.298Z,5.60
2018-06-12T14:51:57.808Z,6.33
2018-06-12T14:55:08.616Z,8.18
2018-06-12T14:58:20.221Z,8.50
2018-06-12T15:01:30.847Z,6.17
2018-06-12T15:04:42.588Z,5.70
2018-06-12T15:07:53.475Z,5.63
2018-06-12T15:11:05.959Z,4.80
2018-06-12T15:14:16.564Z,5.00
2018-06-12T15:17:30.692Z,4.42
2018-06-12T15:20:41.458Z,5.23
2018-06-12T15:23:53.565Z,4.55
2018-06-12T15:27:04.374Z,4.33
2018-06-12T15:30:15.056Z,5.10
2018-06-12T15:33:25.882Z,4.97
2018-06-12T15:36:36.882Z,4.50
2018-06-12T15:39:48.140Z,5.83
2018-06-12T15:42:59.101Z,5.50
2018-06-12T15:46:10.107Z,5.13
2018-06-12T15:49:20.665Z,5.20
2018-06-12T15:52:31.368Z,5.42
2018-06-12T15:55:45.492Z,4.72
2018-06-12T15:58:56.565Z,4.67
2018-06-12T16:02:07.883Z,4.08
2018-06-12T16:05:18.552Z,5.42
2018-06-12T16:08:29.496Z,5.80
2018-06-12T16:11:40.632Z,5.60
2018-06-12T16:14:55.266Z,4.60
2018-06-12T16:18:06.801Z,4.90
2018-06-12T16:21:17.714Z,7.13
2018-06-12T16:24:28.820Z,4.60
2018-06-12T16:27:40.452Z,5.33
2018-06-12T16:30:51.656Z,4.97
2018-06-12T16:34:02.376Z,5.12
2018-06-12T16:37:12.863Z,5.03
2018-06-12T16:40:23.483Z,5.75
2018-06-12T16:43:34.250Z,4.25
2018-06-12T16:46:45.629Z,4.60
2018-06-12T16:49:57.183Z,5.40
2018-06-12T16:53:07.980Z,5.53
2018-06-12T16:56:18.841Z,4.80
2018-06-12T16:59:29.645Z,5.08
2018-06-12T17:02:41.012Z,4.90
2018-06-12T17:05:53.217Z,5.35
2018-06-12T17:09:04.409Z,5.93
2018-06-12T17:12:16.653Z,4.70
2018-06-12T17:15:27.960Z,5.70
2018-06-12T17:18:40.936Z,4.43
2018-06-12T17:21:52.452Z,5.13
2018-06-12T17:25:03.400Z,4.70
2018-06-12T17:28:14.078Z,5.60
2018-06-12T17:31:25.888Z,5.17
2018-06-12T17:34:41.329Z,4.70
2018-06-12T17:37:54.104Z,5.30
2018-06-12T17:41:05.880Z,5.37
2018-06-12T17:44:17.156Z,5.60
2018-06-12T17:47:28.391Z,5.07
2018-06-12T17:50:40.611Z,5.53
2018-06-12T17:53:51.616Z,5.87
2018-06-12T17:57:02.982Z,4.93
2018-06-12T18:00:15.359Z,4.63
2018-06-12T18:03:26.712Z,5.40
2018-06-12T18:06:37.319Z,4.70
2018-06-12T18:09:49.185Z,4.97
2018-06-12T18:13:02.301Z,5.30
2018-06-12T18:16:13.074Z,5.30
2018-06-12T18:19:27.062Z,5.37
2018-06-12T18:22:38.240Z,4.90
2018-06-12T18:25:49.316Z,5.00
2018-06-12T18:29:03.028Z,5.07
2018-06-12T18:32:14.727Z,5.27
2018-06-12T18:35:25.988Z,4.40
2018-06-12T18:38:37.721Z,4.80
2018-06-12T18:41:49.270Z,4.37
2018-06-12T18:45:10.034Z,4.23
2018-06-12T18:48:27.131Z,4.13
2018-06-12T18:51:38.002Z,4.20
2018-06-12T18:54:54.663Z,4.90
2018-06-12T18:58:05.037Z,4.07
2018-06-12T19:01:15.511Z,3.13
2018-06-12T19:04:34.552Z,4.03
2018-06-12T19:07:46.500Z,4.37
2018-06-12T19:10:57.671Z,3.60
2018-06-12T19:14:10.088Z,3.70
2018-06-12T19:17:21.457Z,3.63
2018-06-12T19:20:32.281Z,3.97
2018-06-12T19:23:45.727Z,3.87
2018-06-12T19:26:57.333Z,3.73
2018-06-12T19:30:08.312Z,3.60
2018-06-12T19:33:19.342Z,4.23
2018-06-12T19:36:31.219Z,4.30
2018-06-12T19:39:43.323Z,3.83
2018-06-12T19:42:53.969Z,3.70
2018-06-12T19:46:07.795Z,3.57
2018-06-12T19:49:18.351Z,3.20
2018-06-12T19:52:29.241Z,5.93
2018-06-12T19:55:40.766Z,2.87
2018-06-12T19:58:59.096Z,2.63
2018-06-12T20:02:10.492Z,2.77
2018-06-12T20:05:21.103Z,2.40
2018-06-12T20:08:32.206Z,2.70
2018-06-12T20:11:43.469Z,2.30
2018-06-12T20:14:54.928Z,2.07
2018-06-12T20:18:08.520Z,2.57
2018-06-12T20:21:19.216Z,2.30
2018-06-12T20:24:30.208Z,2.03
2018-06-12T20:27:40.843Z,2.00
2018-06-12T20:30:52.743Z,2.20
2018-06-12T20:34:03.661Z,2.60
2018-06-12T20:37:14.760Z,2.23
2018-06-12T20:40:30.303Z,2.20
2018-06-12T20:43:41.304Z,2.20
2018-06-12T20:46:51.886Z,2.33
2018-06-12T20:50:02.886Z,2.80
2018-06-12T20:53:13.360Z,3.00
2018-06-12T20:56:24.347Z,2.60
2018-06-12T20:59:35.275Z,3.23
2018-06-12T21:02:45.971Z,2.93
2018-06-12T21:05:56.766Z,2.77
2018-06-12T21:09:08.814Z,3.33
2018-06-12T21:12:19.760Z,3.07
2018-06-12T21:15:30.220Z,3.00
2018-06-12T21:18:41.287Z,3.50
2018-06-12T21:21:52.188Z,3.23
2018-06-12T21:25:02.884Z,3.63
2018-06-12T21:28:13.815Z,3.30
2018-06-12T21:31:24.351Z,3.53
2018-06-12T21:34:34.940Z,4.07
2018-06-12T21:37:45.671Z,4.17
2018-06-12T21:40:56.696Z,3.70
2018-06-12T21:44:11.829Z,4.10
2018-06-12T21:47:22.811Z,4.67
2018-06-12T21:50:33.152Z,4.90
2018-06-12T21:53:43.598Z,4.17
2018-06-12T21:56:54.534Z,4.43
2018-06-12T22:00:07.333Z,4.30
2018-06-12T22:03:17.736Z,4.10
2018-06-12T22:06:30.481Z,4.13
2018-06-12T22:09:41.351Z,4.20
2018-06-12T22:12:52.074Z,4.83
2018-06-12T22:16:04.149Z,4.10
2018-06-12T22:19:14.837Z,4.33
2018-06-12T22:22:25.477Z,3.53
2018-06-12T22:25:36.892Z,3.67
2018-06-12T22:28:47.720Z,2.90
2018-06-12T22:31:58.810Z,3.40
2018-06-12T22:35:09.722Z,3.17
2018-06-12T22:38:20.392Z,2.80
2018-06-12T22:41:31.029Z,2.90
2018-06-12T22:44:41.655Z,2.43
2018-06-12T22:47:53.712Z,2.00
2018-06-12T22:51:04.589Z,1.57
2018-06-12T22:54:15.004Z,2.20
2018-06-12T22:57:25.935Z,1.80
2018-06-12T23:00:36.352Z,2.13
2018-06-12T23:03:47.377Z,1.80
2018-06-12T23:06:58.272Z,1.60
2018-06-12T23:10:10.444Z,2.10
2018-06-12T23:13:21.710Z,1.77
2018-06-12T23:16:32.408Z,1.97
2018-06-12T23:20:00.086Z,1.77
2018-06-12T23:23:10.972Z,1.90
2018-06-12T23:26:21.529Z,1.90
2018-06-12T23:29:37.996Z,1.80
2018-06-12T23:32:48.419Z,2.03
2018-06-12T23:35:59.100Z,1.87
2018-06-12T23:39:09.643Z,2.00
2018-06-12T23:42:20.318Z,2.20
2018-06-12T23:45:31.228Z,2.73
2018-06-12T23:48:42.016Z,1.97
2018-06-12T23:51:52.689Z,2.00
2018-06-12T23:55:03.242Z,2.30
2018-06-12T23:58:13.939Z,2.20
